Time;durP1;ratioP1;P1;durP2;ratioP2;P2;SDS_P1;SDS_P2;PMS_P1;PMS_P2;Temp;Humidity;BMP_temperature;BMP_pressure;BME280_temperature;BME280_humidity;BME280_pressure;Samples;Min_cycle;Max_cycle;Signal;HPM_P1;HPM_P2
2024/04/22 00:00:40;;;;;;;3.17;1.60;;;23.10;51.70;;;;;;5449773;26;20283;-70
2024/04/22 00:03:06;;;;;;;2.67;1.70;;;23.00;51.60;;;;;;5449815;26;20211;-70
2024/04/22 00:05:32;;;;;;;2.20;1.80;;;23.10;51.80;;;;;;5448913;26;20256;-70
2024/04/22 00:07:57;;;;;;;2.20;1.67;;;23.10;51.70;;;;;;5449746;26;20578;-70
2024/04/22 00:10:23;;;;;;;2.03;1.60;;;23.10;51.70;;;;;;5449399;26;20254;-70
2024/04/22 00:12:50;;;;;;;3.00;2.00;;;23.10;51.80;;;;;;5449670;26;20607;-68
2024/04/22 00:15:15;;;;;;;2.53;2.00;;;23.10;51.70;;;;;;5449542;26;20497;-70
2024/04/22 00:17:41;;;;;;;2.30;1.97;;;23.00;51.70;;;;;;5449476;26;20436;-70
2024/04/22 00:20:07;;;;;;;2.80;2.00;;;23.10;51.80;;;;;;5449625;26;20263;-70
2024/04/22 00:22:33;;;;;;;4.80;2.40;;;23.00;51.70;;;;;;5449360;26;20635;-70
2024/04/22 00:24:58;;;;;;;2.27;1.50;;;23.10;51.80;;;;;;5449753;26;20436;-70
2024/04/22 00:27:24;;;;;;;3.03;2.00;;;23.00;51.70;;;;;;5449232;26;20273;-68
2024/04/22 00:29:50;;;;;;;2.00;1.53;;;23.00;51.70;;;;;;5417630;26;20258;-70
2024/04/22 00:32:16;;;;;;;2.23;1.57;;;23.00;51.70;;;;;;5449041;26;21267;-69
2024/04/22 00:34:41;;;;;;;3.33;1.73;;;23.00;51.70;;;;;;5449152;26;20267;-71
2024/04/22 00:37:07;;;;;;;2.40;1.50;;;23.00;51.70;;;;;;5417343;26;20219;-68
2024/04/22 00:39:33;;;;;;;2.13;1.90;;;23.00;51.70;;;;;;5449051;26;20226;-70
2024/04/22 00:41:59;;;;;;;3.10;2.03;;;23.00;51.70;;;;;;5449057;26;20567;-69
2024/04/22 00:44:25;;;;;;;2.23;1.50;;;23.00;51.70;;;;;;5449012;26;20740;-70
2024/04/22 00:46:50;;;;;;;2.20;1.67;;;23.00;51.70;;;;;;5448901;26;20489;-70
2024/04/22 00:49:16;;;;;;;2.00;1.80;;;23.00;51.70;;;;;;5448831;26;20512;-70
2024/04/22 00:51:43;;;;;;;2.53;2.10;;;23.00;51.70;;;;;;5449103;26;20718;-68
2024/04/22 00:54:10;;;;;;;2.73;1.77;;;23.00;51.70;;;;;;5448835;26;20219;-70
2024/04/22 00:56:37;;;;;;;1.87;1.53;;;23.00;51.70;;;;;;5417020;26;20795;-70
2024/04/22 00:59:03;;;;;;;2.17;1.57;;;23.00;51.70;;;;;;5448706;26;20493;-70
2024/04/22 01:01:29;;;;;;;1.80;1.50;;;23.00;51.70;;;;;;5448539;26;20440;-70
2024/04/22 01:03:55;;;;;;;2.33;2.00;;;23.00;51.70;;;;;;5448996;26;20705;-70
2024/04/22 01:06:20;;;;;;;1.80;1.70;;;23.00;51.70;;;;;;5448581;26;20482;-70
2024/04/22 01:08:46;;;;;;;1.80;1.57;;;23.00;51.70;;;;;;5448528;26;20554;-70
2024/04/22 01:11:12;;;;;;;2.40;1.50;;;23.00;51.70;;;;;;5448541;26;20634;-69
2024/04/22 01:13:38;;;;;;;3.27;1.90;;;23.00;52.30;;;;;;5448629;26;20219;-70
2024/04/22 01:16:04;;;;;;;2.10;1.53;;;23.00;51.70;;;;;;5448641;26;20508;-69
2024/04/22 01:18:30;;;;;;;2.17;1.67;;;23.00;51.70;;;;;;5451687;26;21081;-69
2024/04/22 01:20:55;;;;;;;2.30;1.80;;;23.00;51.70;;;;;;5452116;26;20227;-70
2024/04/22 01:23:21;;;;;;;2.93;1.87;;;23.00;51.70;;;;;;5451949;26;20324;-70
2024/04/22 01:25:53;;;;;;;2.27;1.80;;;23.00;51.70;;;;;;5451937;26;20212;-69
2024/04/22 01:28:19;;;;;;;1.70;1.47;;;23.00;51.70;;;;;;5451929;26;20226;-68
2024/04/22 01:30:44;;;;;;;2.20;1.70;;;23.00;51.70;;;;;;5451855;26;20449;-70
2024/04/22 01:33:10;;;;;;;1.90;1.60;;;23.00;51.70;;;;;;5452157;26;20283;-71
2024/04/22 01:35:35;;;;;;;1.83;1.53;;;23.00;51.70;;;;;;5452085;26;20584;-70
2024/04/22 01:38:01;;;;;;;2.83;1.50;;;23.00;51.70;;;;;;5420208;26;20232;-69
2024/04/22 01:40:27;;;;;;;2.23;1.70;;;23.00;51.70;;;;;;5452076;26;20219;-70
2024/04/22 01:42:52;;;;;;;1.80;1.40;;;23.00;51.70;;;;;;5452126;26;20824;-69
2024/04/22 01:45:18;;;;;;;2.10;1.63;;;23.00;51.70;;;;;;5451945;26;20216;-70
2024/04/22 01:47:43;;;;;;;2.57;1.57;;;23.00;51.70;;;;;;5451583;26;20223;-68
2024/04/22 01:50:09;;;;;;;2.50;1.80;;;23.00;51.70;;;;;;5452061;26;20796;-69
2024/04/22 01:52:35;;;;;;;1.50;1.37;;;23.00;51.70;;;;;;5451570;26;20215;-70
2024/04/22 01:55:00;;;;;;;2.13;1.47;;;22.90;51.70;;;;;;5451643;26;21069;-70
2024/04/22 01:57:26;;;;;;;2.47;1.73;;;23.00;51.70;;;;;;5451540;26;20319;-70
2024/04/22 01:59:51;;;;;;;1.87;1.43;;;23.00;51.70;;;;;;5451530;26;20215;-70
2024/04/22 02:02:17;;;;;;;2.50;1.40;;;23.00;51.70;;;;;;5451509;26;20227;-69
2024/04/22 02:04:43;;;;;;;1.70;1.40;;;22.90;51.70;;;;;;5451530;26;20455;-68
2024/04/22 02:07:08;;;;;;;1.90;1.60;;;23.00;51.70;;;;;;5451407;26;20628;-69
2024/04/22 02:09:34;;;;;;;2.37;1.40;;;22.90;51.70;;;;;;5451254;26;20231;-69
2024/04/22 02:11:59;;;;;;;1.80;1.40;;;22.90;51.70;;;;;;5451321;26;20215;-69
2024/04/22 02:14:27;;;;;;;1.80;1.50;;;23.00;51.80;;;;;;5451460;26;20262;-69
2024/04/22 02:16:53;;;;;;;1.77;1.60;;;22.90;51.70;;;;;;5451189;26;20219;-70
2024/04/22 02:19:19;;;;;;;1.90;1.40;;;22.90;51.70;;;;;;5451384;26;20456;-70
2024/04/22 02:21:44;;;;;;;1.80;1.40;;;23.00;51.70;;;;;;5451240;26;20515;-70
2024/04/22 02:24:10;;;;;;;2.83;2.13;;;22.90;51.70;;;;;;5451180;26;20266;-70
2024/04/22 02:26:35;;;;;;;1.60;1.50;;;22.90;51.70;;;;;;5451333;26;20721;-71
2024/04/22 02:29:01;;;;;;;2.10;1.70;;;22.90;51.70;;;;;;5450646;26;20231;-70
2024/04/22 02:31:26;;;;;;;1.77;1.60;;;22.90;51.70;;;;;;5451226;26;20690;-70
2024/04/22 02:33:52;;;;;;;2.03;1.60;;;22.90;51.70;;;;;;5450979;26;20215;-69
2024/04/22 02:36:18;;;;;;;1.73;1.37;;;22.90;51.70;;;;;;5451150;26;20211;-70
2024/04/22 02:38:44;;;;;;;1.97;1.50;;;22.90;51.70;;;;;;5450998;26;20644;-69
2024/04/22 02:41:09;;;;;;;1.80;1.33;;;22.90;51.70;;;;;;5451098;26;20436;-69
2024/04/22 02:43:35;;;;;;;1.60;1.30;;;22.90;51.70;;;;;;5450939;26;20215;-70
2024/04/22 02:46:00;;;;;;;1.93;1.47;;;22.90;51.70;;;;;;5450768;26;20269;-70
2024/04/22 02:48:26;;;;;;;1.80;1.30;;;22.90;51.70;;;;;;5450680;26;20338;-69
2024/04/22 02:50:51;;;;;;;1.73;1.23;;;22.90;51.70;;;;;;5451044;26;20215;-69
2024/04/22 02:53:17;;;;;;;1.50;1.40;;;22.90;51.70;;;;;;5418893;26;20341;-68
2024/04/22 02:55:44;;;;;;;1.50;1.20;;;22.90;51.70;;;;;;5450675;26;20219;-70
2024/04/22 02:58:10;;;;;;;1.53;1.27;;;22.90;51.70;;;;;;5450578;26;20315;-71
2024/04/22 03:00:35;;;;;;;1.77;1.30;;;22.90;51.70;;;;;;5450615;26;20444;-71
2024/04/22 03:03:01;;;;;;;3.27;1.27;;;22.90;51.70;;;;;;5418971;26;20227;-70
2024/04/22 03:05:26;;;;;;;3.10;1.40;;;22.90;51.70;;;;;;5418899;26;20698;-70
2024/04/22 03:07:52;;;;;;;2.27;1.60;;;22.90;51.70;;;;;;5450518;26;20573;-69
2024/04/22 03:10:18;;;;;;;1.87;1.70;;;22.90;51.70;;;;;;5450555;26;20211;-70
2024/04/22 03:12:43;;;;;;;2.03;1.23;;;22.90;51.70;;;;;;5450344;26;20223;-70
2024/04/22 03:15:09;;;;;;;1.70;1.50;;;22.90;52.20;;;;;;5450429;26;20559;-70
2024/04/22 03:17:35;;;;;;;1.63;1.23;;;22.90;51.70;;;;;;5450335;26;20262;-69
2024/04/22 03:20:02;;;;;;;1.53;1.33;;;22.90;51.70;;;;;;5450360;26;20219;-70
2024/04/22 03:22:27;;;;;;;1.50;1.37;;;22.90;51.70;;;;;;5450346;26;20617;-69
2024/04/22 03:24:53;;;;;;;1.70;1.47;;;22.90;51.70;;;;;;5428016;26;21004;-70
2024/04/22 03:27:19;;;;;;;2.13;1.40;;;22.90;51.70;;;;;;5414338;26;20220;-70
2024/04/22 03:29:44;;;;;;;1.70;1.43;;;22.90;51.70;;;;;;5414375;26;20224;-70
2024/04/22 03:32:10;;;;;;;1.50;1.40;;;22.90;51.70;;;;;;5414226;26;20221;-70
2024/04/22 03:34:35;;;;;;;1.60;1.50;;;22.90;51.70;;;;;;5414238;26;20745;-70
2024/04/22 03:37:01;;;;;;;2.13;1.30;;;22.90;51.70;;;;;;5414385;26;20224;-70
2024/04/22 03:39:26;;;;;;;1.50;1.30;;;22.90;51.70;;;;;;5412932;26;20259;-70
2024/04/22 03:41:52;;;;;;;2.33;1.53;;;22.90;51.70;;;;;;5414154;26;20812;-70
2024/04/22 03:44:18;;;;;;;1.60;1.30;;;22.90;51.70;;;;;;5414079;26;20260;-69
2024/04/22 03:52:12;;;;;;;1.97;1.20;;;22.90;51.80;;;;;;5414075;26;20501;-69
2024/04/22 03:54:37;;;;;;;1.47;1.20;;;22.90;51.70;;;;;;5413936;26;20442;-69
2024/04/22 03:57:03;;;;;;;2.33;1.47;;;22.90;51.70;;;;;;5413870;26;20449;-69
2024/04/22 03:59:29;;;;;;;1.83;1.57;;;22.90;51.70;;;;;;5413772;26;20722;-70
2024/04/22 04:01:54;;;;;;;2.10;1.47;;;22.90;51.80;;;;;;5413993;26;20278;-70
2024/04/22 04:04:20;;;;;;;1.80;1.40;;;22.90;51.70;;;;;;5413816;26;20228;-69
2024/04/22 04:06:46;;;;;;;2.03;1.60;;;22.90;51.80;;;;;;5413703;26;20224;-68
2024/04/22 04:09:11;;;;;;;2.23;1.33;;;22.90;51.70;;;;;;5413577;26;20232;-69
2024/04/22 04:11:39;;;;;;;2.47;1.40;;;22.90;51.70;;;;;;5413637;26;20754;-69
2024/04/22 04:14:05;;;;;;;1.40;1.20;;;22.90;51.80;;;;;;5413710;26;20224;-69
2024/04/22 04:16:30;;;;;;;1.70;1.40;;;22.90;51.70;;;;;;5413642;26;20490;-69
2024/04/22 04:18:56;;;;;;;1.90;1.50;;;22.90;51.80;;;;;;5413192;26;20232;-70
2024/04/22 04:21:21;;;;;;;1.43;1.33;;;22.90;51.70;;;;;;5413418;26;20236;-70
2024/04/22 04:23:47;;;;;;;1.60;1.20;;;22.90;51.70;;;;;;5413462;26;20266;-69
2024/04/22 04:26:12;;;;;;;1.30;1.07;;;22.90;51.70;;;;;;5382119;26;20263;-69
2024/04/22 04:28:38;;;;;;;1.60;1.27;;;22.90;51.70;;;;;;5413315;26;20236;-69
2024/04/22 04:31:03;;;;;;;1.77;1.20;;;22.90;51.70;;;;;;5413539;26;20232;-70
2024/04/22 04:33:29;;;;;;;2.23;1.20;;;22.90;51.70;;;;;;5413103;26;20568;-70
2024/04/22 04:36:01;;;;;;;1.73;1.27;;;22.90;51.70;;;;;;5413383;26;20340;-69
2024/04/22 04:38:27;;;;;;;2.07;1.50;;;22.90;51.70;;;;;;5413232;26;20699;-69
2024/04/22 04:40:53;;;;;;;1.83;1.50;;;22.90;51.70;;;;;;5413256;26;20450;-70
2024/04/22 04:43:19;;;;;;;1.70;1.60;;;22.90;51.70;;;;;;5413309;26;20511;-69
2024/04/22 04:45:45;;;;;;;2.13;1.80;;;22.90;51.50;;;;;;5413299;26;20220;-69
2024/04/22 04:48:10;;;;;;;1.50;1.40;;;22.90;51.50;;;;;;5412884;26;20715;-69
2024/04/22 04:50:36;;;;;;;1.60;1.30;;;22.90;51.50;;;;;;5413778;26;20216;-69
2024/04/22 04:53:01;;;;;;;1.80;1.17;;;22.90;51.50;;;;;;5416486;26;20224;-70
2024/04/22 04:55:27;;;;;;;2.50;1.53;;;22.90;51.60;;;;;;5416645;26;20229;-69
2024/04/22 04:57:53;;;;;;;1.70;1.40;;;22.90;51.60;;;;;;5416425;26;20228;-69
2024/04/22 05:00:19;;;;;;;1.40;1.10;;;22.90;51.60;;;;;;5416953;26;20220;-68
2024/04/22 05:02:44;;;;;;;1.50;1.37;;;22.90;51.70;;;;;;5416464;26;20236;-71
2024/04/22 05:05:11;;;;;;;1.43;1.30;;;22.90;51.70;;;;;;5416551;26;20220;-71
2024/04/22 05:07:37;;;;;;;1.83;1.33;;;22.90;51.70;;;;;;5416626;26;20580;-71
2024/04/22 05:10:03;;;;;;;2.20;1.70;;;22.90;51.70;;;;;;5416745;26;20551;-69
2024/04/22 05:12:29;;;;;;;1.20;1.00;;;22.90;51.70;;;;;;5416854;26;20228;-71
2024/04/22 05:14:54;;;;;;;2.00;1.33;;;22.90;51.70;;;;;;5416701;26;20517;-70
2024/04/22 05:17:20;;;;;;;1.23;1.10;;;22.90;51.70;;;;;;5416732;26;20315;-72
2024/04/22 05:19:45;;;;;;;1.50;1.10;;;22.90;51.70;;;;;;5416645;26;20263;-71
2024/04/22 05:22:11;;;;;;;2.70;1.50;;;22.90;51.70;;;;;;5416612;26;20242;-72
2024/04/22 05:24:36;;;;;;;3.17;1.53;;;22.90;51.70;;;;;;5416612;26;20262;-71
2024/04/22 05:27:02;;;;;;;1.60;1.10;;;22.90;51.70;;;;;;5416619;26;20220;-71
2024/04/22 05:29:28;;;;;;;1.60;1.30;;;22.90;51.70;;;;;;5416579;26;20669;-71
2024/04/22 05:31:53;;;;;;;1.53;1.20;;;22.90;51.70;;;;;;5416796;26;20246;-72
2024/04/22 05:37:04;;;;;;;2.83;1.50;;;22.90;51.70;;;;;;5416448;26;20799;-71
2024/04/22 05:39:29;;;;;;;1.30;1.13;;;22.90;51.70;;;;;;5416141;26;20466;-71
2024/04/22 05:41:55;;;;;;;1.60;1.30;;;22.90;51.80;;;;;;5416592;26;20267;-71
2024/04/22 05:44:21;;;;;;;1.50;1.20;;;22.90;51.70;;;;;;5416409;26;20793;-72
2024/04/22 05:46:47;;;;;;;1.70;1.33;;;22.90;51.70;;;;;;5416349;26;20232;-70
2024/04/22 05:49:12;;;;;;;1.87;1.37;;;22.90;51.70;;;;;;5415947;26;20462;-71
2024/04/22 05:51:38;;;;;;;1.10;1.00;;;22.90;51.70;;;;;;5416295;26;20216;-71
2024/04/22 05:54:06;;;;;;;1.23;1.03;;;22.90;51.70;;;;;;5416386;26;20325;-71
2024/04/22 05:56:34;;;;;;;1.60;1.20;;;22.90;51.70;;;;;;5416308;26;20338;-70
2024/04/22 05:59:00;;;;;;;1.50;1.20;;;23.00;51.80;;;;;;5416455;26;20796;-70
2024/04/22 06:01:25;;;;;;;1.47;1.20;;;23.00;51.80;;;;;;5416446;26;20492;-71
2024/04/22 06:03:53;;;;;;;1.77;1.20;;;23.00;51.80;;;;;;5415684;26;20266;-72
2024/04/22 06:06:19;;;;;;;2.03;1.30;;;23.00;51.80;;;;;;5416459;26;20292;-71
2024/04/22 06:08:44;;;;;;;1.30;1.10;;;23.00;51.80;;;;;;5415985;26;20474;-72
2024/04/22 06:11:10;;;;;;;1.77;1.30;;;23.00;51.70;;;;;;5384353;26;20224;-71
2024/04/22 06:13:36;;;;;;;1.83;1.30;;;23.00;51.80;;;;;;5384355;26;20231;-71
2024/04/22 06:16:02;;;;;;;1.63;1.30;;;23.00;51.80;;;;;;5415884;26;20992;-71
2024/04/22 06:18:27;;;;;;;1.60;1.13;;;23.00;51.80;;;;;;5415927;26;20228;-71
2024/04/22 06:20:53;;;;;;;2.90;1.50;;;23.00;51.80;;;;;;5415880;26;20224;-72
2024/04/22 06:23:18;;;;;;;1.07;0.97;;;23.00;51.80;;;;;;5415660;26;20275;-70
2024/04/22 06:25:44;;;;;;;1.40;1.20;;;23.00;51.80;;;;;;5415474;26;20321;-72
2024/04/22 06:28:10;;;;;;;1.50;1.40;;;23.00;51.80;;;;;;5415593;26;20279;-71
2024/04/22 06:30:35;;;;;;;1.37;1.20;;;23.00;51.80;;;;;;5415560;26;20284;-71
2024/04/22 06:33:01;;;;;;;1.47;1.23;;;23.00;51.80;;;;;;5415495;26;20454;-72
2024/04/22 06:35:27;;;;;;;1.50;1.20;;;23.00;51.80;;;;;;5415417;26;20683;-71
2024/04/22 06:37:53;;;;;;;1.90;1.50;;;23.00;51.80;;;;;;5415444;26;20263;-69
2024/04/22 06:40:18;;;;;;;2.30;1.37;;;23.00;51.80;;;;;;5415500;26;20274;-71
2024/04/22 06:42:44;;;;;;;1.67;1.30;;;23.00;51.80;;;;;;5415553;26;20267;-70
2024/04/22 06:45:09;;;;;;;1.60;1.13;;;23.00;51.80;;;;;;5415549;26;20224;-71
2024/04/22 06:47:35;;;;;;;2.90;1.27;;;23.00;51.80;;;;;;5415160;26;20752;-72
2024/04/22 06:50:01;;;;;;;1.60;1.30;;;23.00;51.80;;;;;;5415229;26;20341;-71
2024/04/22 06:52:26;;;;;;;2.80;1.30;;;23.00;51.80;;;;;;5383694;26;20259;-70
2024/04/22 06:54:52;;;;;;;2.03;1.10;;;23.00;51.80;;;;;;5383825;26;20621;-71
2024/04/22 06:57:17;;;;;;;1.87;1.10;;;23.00;51.80;;;;;;5415124;26;20267;-71
2024/04/22 06:59:46;;;;;;;1.53;1.20;;;23.00;51.80;;;;;;5415095;26;20232;-71
2024/04/22 07:02:12;;;;;;;1.40;1.27;;;23.00;51.80;;;;;;5415214;26;20220;-71
2024/04/22 07:04:37;;;;;;;1.10;0.80;;;23.00;51.80;;;;;;5415030;26;21276;-71
2024/04/22 07:07:03;;;;;;;1.30;1.10;;;23.00;51.80;;;;;;5414946;26;20216;-72
2024/04/22 07:09:29;;;;;;;1.20;1.00;;;23.00;51.80;;;;;;5415073;26;20278;-69
2024/04/22 07:11:54;;;;;;;1.33;1.10;;;23.00;51.80;;;;;;5414960;26;20224;-72
2024/04/22 07:14:22;;;;;;;2.63;1.40;;;23.10;51.90;;;;;;5413247;26;20254;-72
2024/04/22 07:16:55;;;;;;;1.90;1.30;;;23.10;51.90;;;;;;5414730;26;20240;-70
2024/04/22 07:19:21;;;;;;;1.17;1.00;;;23.10;51.90;;;;;;5414574;26;20578;-72
2024/04/22 07:21:46;;;;;;;1.20;1.00;;;23.10;51.90;;;;;;5414948;26;20458;-70
2024/04/22 07:24:12;;;;;;;1.20;1.00;;;23.10;51.90;;;;;;5414754;26;20439;-72
2024/04/22 07:26:37;;;;;;;1.37;1.10;;;23.10;51.90;;;;;;5414727;26;20275;-69
2024/04/22 07:29:03;;;;;;;1.53;1.20;;;23.10;51.80;;;;;;5414418;26;20237;-71
2024/04/22 07:31:29;;;;;;;1.63;1.37;;;23.10;51.80;;;;;;5414534;26;20267;-71
2024/04/22 07:33:55;;;;;;;1.37;1.10;;;23.10;51.80;;;;;;5414746;26;20221;-71
2024/04/22 07:36:30;;;;;;;1.30;1.00;;;23.10;51.90;;;;;;5414903;26;20497;-70
2024/04/22 07:38:59;;;;;;;1.93;1.20;;;23.10;51.90;;;;;;5414432;26;20580;-71
2024/04/22 07:41:25;;;;;;;2.60;1.73;;;23.10;51.80;;;;;;5414378;26;20509;-72
2024/04/22 07:43:51;;;;;;;1.50;1.20;;;23.10;51.90;;;;;;5414198;26;20443;-70
2024/04/22 07:46:18;;;;;;;1.50;1.20;;;23.10;51.90;;;;;;5414447;26;20573;-71
2024/04/22 07:48:44;;;;;;;1.30;1.10;;;23.10;51.90;;;;;;5414054;26;20308;-71
2024/04/22 07:51:10;;;;;;;1.10;0.93;;;23.10;51.90;;;;;;5414255;26;20922;-72
2024/04/22 07:53:35;;;;;;;1.20;0.90;;;23.10;51.80;;;;;;5413956;26;20342;-71
2024/04/22 07:56:01;;;;;;;1.70;1.20;;;23.10;52.40;;;;;;5414296;26;20451;-72
2024/04/22 07:58:27;;;;;;;1.67;1.20;;;23.10;51.90;;;;;;5414069;26;20245;-71
2024/04/22 08:00:53;;;;;;;1.67;1.10;;;23.10;51.90;;;;;;5414186;26;20620;-71
2024/04/22 08:03:19;;;;;;;1.43;0.97;;;23.10;51.90;;;;;;5414029;26;20236;-71
2024/04/22 08:05:45;;;;;;;1.40;1.00;;;23.10;51.90;;;;;;5414053;26;20255;-68
2024/04/22 08:08:12;;;;;;;1.10;1.00;;;23.10;51.90;;;;;;5413921;26;20462;-70
2024/04/22 08:10:38;;;;;;;1.40;1.20;;;23.10;51.90;;;;;;5414059;26;20276;-69
2024/04/22 08:13:04;;;;;;;1.33;1.10;;;23.10;51.90;;;;;;5413805;26;20841;-70
2024/04/22 08:15:29;;;;;;;1.30;1.20;;;23.10;51.90;;;;;;5413768;26;20812;-72
2024/04/22 08:17:55;;;;;;;1.50;1.20;;;23.10;51.90;;;;;;5413652;26;20236;-72
2024/04/22 08:20:20;;;;;;;1.80;1.10;;;23.10;51.90;;;;;;5413709;26;20228;-72
2024/04/22 08:22:46;;;;;;;2.17;1.43;;;23.10;51.90;;;;;;5413503;26;20333;-71
2024/04/22 08:25:11;;;;;;;2.03;1.10;;;23.10;51.90;;;;;;5413172;26;20228;-71
2024/04/22 08:27:37;;;;;;;1.53;1.20;;;23.10;51.90;;;;;;5413595;26;20258;-69
2024/04/22 08:30:03;;;;;;;1.40;1.03;;;23.10;51.90;;;;;;5413512;26;20761;-71
2024/04/22 08:32:28;;;;;;;1.10;0.90;;;23.10;51.90;;;;;;5413423;26;20224;-71
2024/04/22 08:34:57;;;;;;;1.50;1.20;;;23.10;51.90;;;;;;5413757;26;20583;-71
2024/04/22 08:37:23;;;;;;;1.20;1.10;;;23.10;51.90;;;;;;5413399;26;20228;-69
2024/04/22 08:39:49;;;;;;;1.20;0.90;;;23.10;51.90;;;;;;5413510;26;20462;-69
2024/04/22 08:42:15;;;;;;;1.53;1.43;;;23.10;51.90;;;;;;5412715;26;20220;-70
2024/04/22 08:44:41;;;;;;;1.20;1.00;;;23.10;51.90;;;;;;5412273;26;20228;-68
2024/04/22 08:47:07;;;;;;;1.60;1.20;;;23.10;51.90;;;;;;5413343;26;20499;-70
2024/04/22 08:49:33;;;;;;;1.10;0.93;;;23.10;51.90;;;;;;5413228;26;20268;-71
2024/04/22 08:51:59;;;;;;;1.30;1.13;;;23.20;52.00;;;;;;5413535;26;20860;-70
2024/04/22 08:54:25;;;;;;;1.03;0.90;;;23.10;51.90;;;;;;5413328;26;20450;-71
2024/04/22 08:56:53;;;;;;;1.50;1.10;;;23.20;52.00;;;;;;5413304;26;20220;-71
2024/04/22 08:59:19;;;;;;;1.60;1.33;;;23.20;52.00;;;;;;5413233;26;20499;-70
2024/04/22 09:01:45;;;;;;;1.30;0.90;;;23.10;51.90;;;;;;5413158;26;20794;-70
2024/04/22 09:04:10;;;;;;;1.23;1.00;;;23.20;52.00;;;;;;5413189;26;20263;-70
2024/04/22 09:06:36;;;;;;;1.30;1.10;;;23.20;52.00;;;;;;5413121;26;20553;-71
2024/04/22 09:09:07;;;;;;;1.23;1.10;;;23.20;52.00;;;;;;5413118;26;20228;-71
2024/04/22 09:11:33;;;;;;;1.67;1.30;;;23.10;51.90;;;;;;5381642;26;20588;-71
2024/04/22 09:14:00;;;;;;;1.33;1.00;;;23.10;51.90;;;;;;5412778;26;20438;-70
2024/04/22 09:16:25;;;;;;;1.47;1.20;;;23.10;51.90;;;;;;5381407;26;21079;-70
2024/04/22 09:18:51;;;;;;;1.10;0.90;;;23.10;51.90;;;;;;5412625;26;20462;-72
2024/04/22 09:21:16;;;;;;;1.50;1.13;;;23.10;51.90;;;;;;5412859;26;20221;-71
2024/04/22 09:23:42;;;;;;;1.30;1.10;;;23.20;52.00;;;;;;5412533;26;20220;-71
2024/04/22 09:26:08;;;;;;;1.17;0.90;;;23.10;51.90;;;;;;5412418;26;20267;-69
2024/04/22 09:28:35;;;;;;;1.30;0.90;;;23.10;51.90;;;;;;5412206;26;20232;-70
2024/04/22 09:31:04;;;;;;;1.20;0.90;;;23.10;51.90;;;;;;5412446;26;20595;-69
2024/04/22 09:33:36;;;;;;;1.20;1.10;;;23.10;51.90;;;;;;5412419;26;20872;-71
2024/04/22 09:36:06;;;;;;;2.03;1.00;;;23.10;51.90;;;;;;5412230;26;20443;-70
2024/04/22 09:38:34;;;;;;;1.40;1.10;;;23.10;51.90;;;;;;5414186;26;20450;-72
2024/04/22 09:41:03;;;;;;;1.30;0.90;;;23.10;51.90;;;;;;5415909;26;20454;-71
2024/04/22 09:43:34;;;;;;;1.30;0.90;;;23.10;51.90;;;;;;5416189;26;20556;-71
2024/04/22 09:46:03;;;;;;;1.10;1.00;;;23.10;51.90;;;;;;5415952;26;20442;-70
2024/04/22 09:48:30;;;;;;;1.53;1.20;;;23.20;52.00;;;;;;5415954;26;20539;-70
2024/04/22 09:50:59;;;;;;;1.23;1.10;;;23.10;52.50;;;;;;5415836;26;20450;-71
2024/04/22 09:53:28;;;;;;;1.60;0.97;;;23.20;52.00;;;;;;5415759;26;20537;-72
2024/04/22 09:56:04;;;;;;;1.20;0.90;;;23.20;52.00;;;;;;5415894;26;20454;-71
2024/04/22 09:58:32;;;;;;;1.40;1.17;;;23.20;52.10;;;;;;5415751;26;20546;-72
2024/04/22 10:00:58;;;;;;;1.73;1.10;;;23.10;52.00;;;;;;5415955;26;20506;-71
2024/04/22 10:03:26;;;;;;;1.57;1.10;;;23.20;52.00;;;;;;5384181;26;21086;-70
2024/04/22 10:05:55;;;;;;;1.50;1.10;;;23.10;52.00;;;;;;5415661;26;20931;-71
2024/04/22 10:08:21;;;;;;;1.50;0.90;;;23.20;52.60;;;;;;5415524;26;21023;-71
2024/04/22 10:10:47;;;;;;;1.00;0.80;;;23.20;52.00;;;;;;5415701;26;20517;-70
2024/04/22 10:13:14;;;;;;;1.20;0.93;;;23.10;51.90;;;;;;5384312;26;20310;-70
2024/04/22 10:15:40;;;;;;;1.20;1.00;;;23.10;51.90;;;;;;5416102;26;20495;-71
2024/04/22 10:18:12;;;;;;;1.10;0.80;;;23.20;52.00;;;;;;5384894;26;20474;-72
2024/04/22 10:20:40;;;;;;;1.10;0.90;;;23.20;52.00;;;;;;5415983;26;20526;-69
2024/04/22 10:23:11;;;;;;;1.00;0.80;;;23.10;51.90;;;;;;5416257;26;20457;-71
2024/04/22 10:25:37;;;;;;;1.20;0.80;;;23.20;52.00;;;;;;5416172;26;20442;-71
2024/04/22 10:28:03;;;;;;;1.10;1.00;;;23.20;52.00;;;;;;5416145;26;21087;-71
2024/04/22 10:30:33;;;;;;;1.00;0.87;;;23.10;51.90;;;;;;5416220;26;20240;-71
2024/04/22 10:32:58;;;;;;;2.27;1.10;;;23.20;52.00;;;;;;5416163;26;20220;-71
2024/04/22 10:35:24;;;;;;;1.20;1.00;;;23.10;51.90;;;;;;5415858;26;20503;-69
2024/04/22 10:37:49;;;;;;;1.43;1.07;;;23.20;52.00;;;;;;5415584;26;20780;-71
2024/04/22 10:40:15;;;;;;;1.27;0.97;;;23.10;51.90;;;;;;5415682;26;20221;-71
2024/04/22 10:42:41;;;;;;;1.20;0.90;;;23.20;52.00;;;;;;5416134;26;20217;-72
2024/04/22 10:45:07;;;;;;;1.10;0.80;;;23.20;52.00;;;;;;5384498;26;21065;-71
2024/04/22 10:47:33;;;;;;;1.20;1.10;;;23.10;51.90;;;;;;5415536;26;20233;-71
2024/04/22 10:50:00;;;;;;;1.90;0.93;;;23.10;52.00;;;;;;5415042;26;21212;-70
2024/04/22 10:52:25;;;;;;;1.40;0.90;;;23.10;51.90;;;;;;5415248;26;20552;-72
2024/04/22 10:54:52;;;;;;;1.80;1.20;;;23.10;52.00;;;;;;5415046;26;20443;-71
2024/04/22 10:57:18;;;;;;;1.77;1.20;;;23.20;52.00;;;;;;5414994;26;20216;-71
2024/04/22 10:59:43;;;;;;;2.30;1.80;;;23.10;52.00;;;;;;5414634;26;20812;-70
2024/04/22 11:02:10;;;;;;;3.33;2.50;;;23.10;51.90;;;;;;5414674;26;20502;-70
2024/04/22 11:04:38;;;;;;;5.37;3.77;;;23.20;52.00;;;;;;5414760;26;20324;-71
2024/04/22 11:07:04;;;;;;;5.43;4.70;;;23.10;51.90;;;;;;5414642;26;20451;-72
2024/04/22 11:09:32;;;;;;;7.40;5.57;;;23.10;51.80;;;;;;5414571;26;20867;-72
2024/04/22 11:11:59;;;;;;;8.70;5.83;;;23.10;51.80;;;;;;5414596;26;20805;-70
2024/04/22 11:14:25;;;;;;;7.37;5.63;;;23.10;51.80;;;;;;5414316;26;20498;-70
2024/04/22 11:16:57;;;;;;;8.60;6.57;;;23.10;51.80;;;;;;5414542;26;21060;-72
2024/04/22 11:19:22;;;;;;;10.47;7.90;;;23.10;51.70;;;;;;5414421;26;21073;-69
2024/04/22 11:21:48;;;;;;;11.63;6.37;;;23.10;51.70;;;;;;5414469;26;20447;-71
2024/04/22 11:24:14;;;;;;;8.63;5.90;;;23.10;51.60;;;;;;5414170;26;20690;-71
2024/04/22 11:26:41;;;;;;;7.80;6.23;;;23.10;51.60;;;;;;5414259;26;20220;-71
2024/04/22 11:29:08;;;;;;;8.80;6.00;;;23.10;51.60;;;;;;5383748;26;20259;-71
2024/04/22 11:31:37;;;;;;;9.17;6.80;;;23.10;51.50;;;;;;5414262;26;20507;-71
2024/04/22 11:34:05;;;;;;;7.77;6.70;;;23.10;52.10;;;;;;5414115;26;20442;-72
2024/04/22 11:36:34;;;;;;;7.87;5.93;;;23.10;51.50;;;;;;5414274;26;20442;-71
2024/04/22 11:39:13;;;;;;;11.07;7.03;;;23.10;51.40;;;;;;5414379;26;20462;-71
2024/04/22 11:41:39;;;;;;;6.83;5.93;;;23.10;51.40;;;;;;5413853;26;20505;-70
2024/04/22 11:44:04;;;;;;;9.27;6.43;;;23.10;51.40;;;;;;5414038;26;20454;-71
2024/04/22 11:46:30;;;;;;;7.90;6.37;;;23.10;51.40;;;;;;5414135;26;20290;-72
2024/04/22 11:48:56;;;;;;;7.50;6.13;;;23.10;51.30;;;;;;5382400;26;20235;-71
2024/04/22 11:51:21;;;;;;;8.30;6.20;;;23.10;51.30;;;;;;5413798;26;20267;-72
2024/04/22 11:53:47;;;;;;;8.23;5.97;;;23.10;51.30;;;;;;5413956;26;20225;-70
2024/04/22 11:56:13;;;;;;;6.57;5.27;;;23.10;51.40;;;;;;5414912;26;20317;-70
2024/04/22 11:58:38;;;;;;;9.23;6.63;;;23.10;51.40;;;;;;5413959;26;20693;-71
2024/04/22 12:01:04;;;;;;;8.73;5.80;;;23.10;51.50;;;;;;5412947;26;20309;-70
2024/04/22 12:03:30;;;;;;;10.23;5.97;;;23.00;51.40;;;;;;5413893;26;20310;-71
2024/04/22 12:05:55;;;;;;;8.53;6.00;;;23.10;51.50;;;;;;5414243;26;20506;-71
2024/04/22 12:08:21;;;;;;;6.80;6.10;;;23.10;51.40;;;;;;5413765;26;20282;-71
2024/04/22 12:10:47;;;;;;;6.07;4.80;;;23.10;51.50;;;;;;5413738;26;20666;-69
2024/04/22 12:13:13;;;;;;;8.00;5.57;;;23.10;51.50;;;;;;5413607;26;20723;-72
2024/04/22 12:15:38;;;;;;;8.37;5.97;;;23.10;51.50;;;;;;5413716;26;20446;-71
2024/04/22 12:18:04;;;;;;;7.90;5.13;;;23.10;51.50;;;;;;5413829;26;20599;-71
2024/04/22 12:20:30;;;;;;;7.37;5.77;;;23.10;51.50;;;;;;5413710;26;20274;-71
2024/04/22 12:22:56;;;;;;;9.40;5.67;;;23.00;51.40;;;;;;5413829;26;20466;-71
2024/04/22 12:25:21;;;;;;;9.73;5.60;;;23.10;51.40;;;;;;5413557;26;20216;-71
2024/04/22 12:27:47;;;;;;;9.37;6.13;;;23.10;51.50;;;;;;5413730;26;20228;-71
2024/04/22 12:30:13;;;;;;;5.77;5.17;;;23.10;51.60;;;;;;5413536;26;20225;-71
2024/04/22 12:32:38;;;;;;;7.80;5.17;;;23.10;51.60;;;;;;5413353;26;20224;-70
2024/04/22 12:35:04;;;;;;;7.77;5.67;;;23.10;52.20;;;;;;5413405;26;20220;-69
2024/04/22 12:37:30;;;;;;;8.30;6.13;;;23.10;51.60;;;;;;5413478;26;20220;-71
2024/04/22 12:39:55;;;;;;;5.70;4.80;;;23.10;51.60;;;;;;5413371;26;20259;-71
2024/04/22 12:42:21;;;;;;;6.90;5.50;;;23.10;51.60;;;;;;5413390;26;20220;-70
2024/04/22 12:44:47;;;;;;;7.37;5.80;;;23.10;51.60;;;;;;5413209;26;20266;-70
2024/04/22 12:52:41;;;;;;;5.80;4.50;;;23.10;51.60;;;;;;5413133;26;20529;-71